createdAt,value
2019-04-29T00:04:07.456Z,57.23
2019-04-29T00:09:16.462Z,55.58
2019-04-29T00:14:22.779Z,58.42
2019-04-29T00:19:36.237Z,62.08
2019-04-29T00:24:43.118Z,66.37
2019-04-29T00:29:48.985Z,66.20
2019-04-29T00:34:55.163Z,68.95
2019-04-29T00:40:11.885Z,74.75
2019-04-29T00:45:18.439Z,72.20
2019-04-29T00:50:24.455Z,63.13
2019-04-29T00:55:32.154Z,67.95
2019-04-29T01:00:40.893Z,65.42
2019-04-29T01:05:46.880Z,70.10
2019-04-29T01:10:53.135Z,60.25
2019-04-29T01:15:59.021Z,52.45
2019-04-29T01:21:05.077Z,51.13
2019-04-29T01:26:21.494Z,51.70
2019-04-29T01:31:29.106Z,46.13
2019-04-29T01:36:39.276Z,47.78
2019-04-29T01:41:45.042Z,44.95
2019-04-29T01:46:51.175Z,44.93
2019-04-29T01:51:57.184Z,35.68
2019-04-29T01:57:03.163Z,37.63
2019-04-29T02:02:09.130Z,32.42
2019-04-29T02:07:15.506Z,34.60
2019-04-29T02:12:21.375Z,30.45
2019-04-29T02:17:27.239Z,33.90
2019-04-29T02:22:43.655Z,33.00
2019-04-29T02:27:49.640Z,29.27
2019-04-29T02:32:55.703Z,34.78
2019-04-29T02:38:02.292Z,33.35
2019-04-29T02:43:18.921Z,34.85
2019-04-29T02:48:29.196Z,32.60
2019-04-29T02:58:45.321Z,41.30
2019-04-29T03:03:58.772Z,40.70
2019-04-29T03:09:06.792Z,36.42
2019-04-29T03:14:13.269Z,43.38
2019-04-29T03:19:23.746Z,40.65
2019-04-29T03:24:30.043Z,39.65
2019-04-29T03:29:36.509Z,43.10
2019-04-29T03:34:42.490Z,40.43
2019-04-29T03:39:48.499Z,50.48
2019-04-29T03:44:54.422Z,45.05
2019-04-29T03:50:00.389Z,46.92
2019-04-29T03:55:07.391Z,42.50
2019-04-29T04:00:17.657Z,44.33
2019-04-29T04:05:43.395Z,53.45
2019-04-29T04:10:49.567Z,47.83
2019-04-29T04:15:55.636Z,51.95
2019-04-29T04:21:01.619Z,48.92
2019-04-29T04:26:07.686Z,58.20
2019-04-29T04:31:13.591Z,55.40
2019-04-29T04:36:19.423Z,54.30
2019-04-29T04:41:25.503Z,55.17
2019-04-29T04:46:31.579Z,48.98
2019-04-29T04:51:37.551Z,57.95
2019-04-29T04:56:44.024Z,49.50
2019-04-29T05:01:49.989Z,43.60
2019-04-29T05:06:55.834Z,35.13
2019-04-29T05:12:02.032Z,35.50
2019-04-29T05:17:09.031Z,34.30
2019-04-29T05:22:14.948Z,30.97
2019-04-29T05:27:21.347Z,32.05
2019-04-29T05:32:27.196Z,27.40
2019-04-29T05:37:37.730Z,26.85
2019-04-29T05:42:43.806Z,26.85
2019-04-29T05:47:57.134Z,26.25
2019-04-29T05:53:16.370Z,26.02
2019-04-29T05:58:20.663Z,25.70
2019-04-29T06:03:26.631Z,26.37
2019-04-29T06:08:34.410Z,25.23
2019-04-29T06:13:40.216Z,24.60
2019-04-29T06:18:46.182Z,19.82
2019-04-29T06:23:54.566Z,19.75
2019-04-29T06:29:01.806Z,20.45
2019-04-29T06:34:07.892Z,19.75
2019-04-29T06:39:14.174Z,22.90
2019-04-29T06:44:20.234Z,18.52
2019-04-29T06:49:26.311Z,19.62
2019-04-29T06:54:32.295Z,20.70
2019-04-29T06:59:38.219Z,21.90
2019-04-29T07:04:44.224Z,16.57
2019-04-29T07:09:50.428Z,19.50
2019-04-29T07:14:56.369Z,19.37
2019-04-29T07:20:03.369Z,13.62
2019-04-29T07:25:09.479Z,15.80
2019-04-29T07:30:15.610Z,16.10
2019-04-29T07:35:21.580Z,19.65
2019-04-29T07:40:27.862Z,16.12
2019-04-29T07:45:51.772Z,13.58
2019-04-29T07:50:59.382Z,17.20
2019-04-29T07:56:06.320Z,14.83
2019-04-29T08:01:13.254Z,16.00
2019-04-29T08:06:19.754Z,14.93
2019-04-29T08:11:25.701Z,14.33
2019-04-29T08:16:31.778Z,14.70
2019-04-29T08:21:37.847Z,19.92
2019-04-29T08:26:47.262Z,14.53
2019-04-29T08:31:56.334Z,14.50
2019-04-29T08:36:59.239Z,13.80
2019-04-29T08:42:09.130Z,18.05
2019-04-29T08:47:18.556Z,12.93
2019-04-29T08:52:24.530Z,15.48
2019-04-29T08:57:31.819Z,18.87
2019-04-29T09:02:41.254Z,16.20
2019-04-29T09:07:46.026Z,17.55
2019-04-29T09:12:51.894Z,19.50
2019-04-29T09:17:57.865Z,17.50
2019-04-29T09:23:08.281Z,14.78
2019-04-29T09:28:18.270Z,14.98
2019-04-29T09:33:23.935Z,14.38
2019-04-29T09:38:32.570Z,15.53
2019-04-29T09:43:59.253Z,11.65
2019-04-29T09:49:05.131Z,22.22
2019-04-29T09:54:14.594Z,14.93
2019-04-29T09:59:26.497Z,15.53
2019-04-29T10:04:34.206Z,13.45
2019-04-29T10:09:40.525Z,13.88
2019-04-29T10:14:46.655Z,12.85
2019-04-29T10:19:54.369Z,13.20
2019-04-29T10:25:00.443Z,14.15
2019-04-29T10:30:10.028Z,15.55
2019-04-29T10:35:16.170Z,14.85
2019-04-29T10:40:29.729Z,12.35
2019-04-29T10:45:40.816Z,15.75
2019-04-29T10:50:52.158Z,16.17
2019-04-29T10:56:01.081Z,13.03
2019-04-29T11:06:46.778Z,15.95
2019-04-29T11:11:53.979Z,13.50
2019-04-29T11:17:01.075Z,13.53
2019-04-29T11:22:07.616Z,16.27
2019-04-29T11:27:15.087Z,21.37
2019-04-29T11:32:32.199Z,30.00
2019-04-29T11:37:38.583Z,15.35
2019-04-29T11:42:44.552Z,15.58
2019-04-29T11:47:50.393Z,18.42
2019-04-29T11:52:56.496Z,13.38
2019-04-29T11:58:03.998Z,16.60
2019-04-29T12:03:19.869Z,14.28
2019-04-29T12:08:26.080Z,15.58
2019-04-29T12:13:42.706Z,16.17
2019-04-29T12:18:50.260Z,16.50
2019-04-29T12:24:11.743Z,14.25
2019-04-29T12:29:19.401Z,13.48
2019-04-29T12:39:49.996Z,21.45
2019-04-29T12:45:03.146Z,14.28
2019-04-29T12:50:09.351Z,14.80
2019-04-29T12:55:20.071Z,16.65
2019-04-29T13:00:26.410Z,21.42
2019-04-29T13:05:57.174Z,14.07
2019-04-29T13:10:56.784Z,16.65
2019-04-29T13:16:05.006Z,11.85
2019-04-29T13:21:11.388Z,18.60
2019-04-29T13:31:55.942Z,14.83
2019-04-29T13:37:07.473Z,31.40
2019-04-29T13:42:15.339Z,15.95
2019-04-29T13:47:36.040Z,19.67
2019-04-29T13:52:42.065Z,14.50
2019-04-29T13:57:49.577Z,11.73
2019-04-29T14:03:00.341Z,16.87
2019-04-29T14:08:06.326Z,19.82
2019-04-29T14:13:17.526Z,14.53
2019-04-29T14:18:20.208Z,14.03
2019-04-29T14:23:26.281Z,13.85
2019-04-29T14:28:32.355Z,15.75
2019-04-29T14:33:39.862Z,14.15
2019-04-29T14:38:45.939Z,19.27
2019-04-29T14:43:57.036Z,13.93
2019-04-29T14:49:06.233Z,17.87
2019-04-29T14:54:12.316Z,17.50
2019-04-29T14:59:19.708Z,12.90
2019-04-29T15:04:27.768Z,13.50
2019-04-29T15:09:46.037Z,11.43
2019-04-29T15:15:00.864Z,16.00
2019-04-29T15:20:10.403Z,16.55
2019-04-29T15:25:20.860Z,18.67
2019-04-29T15:35:29.623Z,13.70
2019-04-29T15:40:42.830Z,16.97
2019-04-29T15:45:43.290Z,19.32
2019-04-29T15:50:49.256Z,14.05
2019-04-29T15:56:06.583Z,15.25
2019-04-29T16:01:12.960Z,9.98
2019-04-29T16:06:21.261Z,13.53
2019-04-29T16:11:35.491Z,10.03
2019-04-29T16:16:42.677Z,14.50
2019-04-29T16:21:48.741Z,8.53
2019-04-29T16:26:54.712Z,13.08
2019-04-29T16:32:03.167Z,12.68
2019-04-29T16:42:15.587Z,12.88
2019-04-29T16:47:22.588Z,16.30
2019-04-29T16:52:28.514Z,12.10
2019-04-29T16:57:35.856Z,8.07
2019-04-29T17:02:41.836Z,15.23
2019-04-29T17:07:48.544Z,8.40
2019-04-29T17:12:54.586Z,10.95
2019-04-29T17:18:00.664Z,13.03
2019-04-29T17:23:06.738Z,11.18
2019-04-29T17:28:24.154Z,14.45
2019-04-29T17:33:30.370Z,8.75
2019-04-29T17:38:37.139Z,10.40
2019-04-29T17:43:56.993Z,10.55
2019-04-29T17:49:17.071Z,12.07
2019-04-29T17:54:25.513Z,10.03
2019-04-29T17:59:33.380Z,9.40
2019-04-29T18:04:56.012Z,15.93
2019-04-29T18:10:05.088Z,10.93
2019-04-29T18:15:17.438Z,14.78
2019-04-29T18:20:33.460Z,13.18
2019-04-29T18:25:40.575Z,12.85
2019-04-29T18:30:49.777Z,17.02
2019-04-29T18:36:03.730Z,10.45
2019-04-29T18:41:02.335Z,13.25
2019-04-29T18:46:12.666Z,10.53
2019-04-29T18:51:15.993Z,13.83
2019-04-29T18:56:21.975Z,13.80
2019-04-29T19:01:28.804Z,12.18
2019-04-29T19:06:36.295Z,16.25
2019-04-29T19:11:42.256Z,14.25
2019-04-29T19:16:48.308Z,15.20
2019-04-29T19:21:55.877Z,11.73
2019-04-29T19:27:02.342Z,15.18
2019-04-29T19:32:08.662Z,17.48
2019-04-29T19:37:15.388Z,13.28
2019-04-29T19:42:29.036Z,9.43
2019-04-29T19:47:29.466Z,9.95
2019-04-29T19:52:35.365Z,12.90
2019-04-29T19:57:46.650Z,11.60
2019-04-29T20:02:50.423Z,14.35
2019-04-29T20:07:59.022Z,10.63
2019-04-29T20:13:04.933Z,11.90
2019-04-29T20:18:23.769Z,12.28
2019-04-29T20:23:26.109Z,13.18
2019-04-29T20:28:30.984Z,12.50
2019-04-29T20:33:37.369Z,18.35
2019-04-29T20:38:45.309Z,14.85
2019-04-29T20:43:51.501Z,11.63
2019-04-29T20:48:59.606Z,16.50
2019-04-29T20:54:19.901Z,8.58
2019-04-29T20:59:26.275Z,14.45
2019-04-29T21:04:39.137Z,12.82
2019-04-29T21:09:39.956Z,11.25
2019-04-29T21:14:47.950Z,12.70
2019-04-29T21:19:53.895Z,12.45
2019-04-29T21:24:59.893Z,14.45
2019-04-29T21:30:07.579Z,15.18
2019-04-29T21:35:18.570Z,16.40
2019-04-29T21:40:27.506Z,15.35
2019-04-29T21:45:33.480Z,16.57
2019-04-29T21:50:39.348Z,14.75
2019-04-29T21:55:45.758Z,16.17
2019-04-29T22:00:55.934Z,12.75
2019-04-29T22:06:02.073Z,11.50
2019-04-29T22:11:08.040Z,13.80
2019-04-29T22:16:15.906Z,14.28
2019-04-29T22:21:23.439Z,12.95
2019-04-29T22:26:29.539Z,15.65
2019-04-29T22:31:38.177Z,13.50
2019-04-29T22:36:43.016Z,15.88
2019-04-29T22:42:06.703Z,10.90
2019-04-29T22:47:16.549Z,11.93
2019-04-29T22:52:20.282Z,13.85
2019-04-29T22:57:28.108Z,12.70
2019-04-29T23:02:33.966Z,15.30
2019-04-29T23:07:39.836Z,18.37
2019-04-29T23:12:49.307Z,10.10
2019-04-29T23:17:53.414Z,12.95
2019-04-29T23:23:07.661Z,13.15
2019-04-29T23:28:14.162Z,11.68
2019-04-29T23:33:22.840Z,13.00
2019-04-29T23:38:27.641Z,12.00
2019-04-29T23:43:35.429Z,11.43
2019-04-29T23:48:41.531Z,16.35
2019-04-29T23:53:47.353Z,13.15
2019-04-29T23:58:55.409Z,13.95
